Murfreesboro, TN (37132)

11:21 PM CST on December 09, 2016 (GMT -0600)
Tulip Hill | | Change Station

Elev 623 ft 35.81 °N, 86.37 °W | Updated 41 seconds ago

Clear
Clear
18.2 °F
Feels Like 18 °F
N
0.0
Wind Variable Wind from SW

Today
High -- | Low -- °F
--% Chance of Precip.
Yesterday
High -- | Low -- °F
Precip. -- in
Pressure 30.66 in
Visibility 10.0 miles
Clouds Clear
Windchill 18 °F
Dew Point 15 °F
Humidity 88%
Rainfall 0.00 in
Snow Depth Not available.
6:44 AM 4:31 PM
Waxing Gibbous, 80% visible
METAR KMQY 100456Z AUTO 32003KT 10SM CLR M06/M08 A3060 RMK AO2 SLP380 T10561083
Pressure 30.66 in
Visibility 10.0 miles
Clouds Clear
Windchill 18 °F
Dew Point 15 °F
Humidity 88%
Rainfall 0.00 in
Snow Depth Not available.
6:44 AM 4:31 PM
Waxing Gibbous, 80% visible
METAR KMQY 100456Z AUTO 32003KT 10SM CLR M06/M08 A3060 RMK AO2 SLP380 T10561083

10-Day Weather Forecast

Almanac

Astronomy

Dec. 09, 2016 Rise Set
Actual Time
Civil Twilight
Nautical Twilight
Astronomical Twilight
Moon
Length of Visible Light
Length of Day
Tomorrow will be .
, % of the Moon is Illuminated

Today's Extremes

State Highs State Lows

Community

WunderPhotos

Upload Photos

1,956,529 photos uploaded!

WunderBlog® & News

Nearby

Air Quality

  Air Quality AQ Index Pollutant
Not available.

Snow Depth

Station Depth Elevation

Earthquake Activity

City Distance Mag. Time & Date
Minimum magnitude displayed is 2.5.

Coastal Water Temperatures

Place Temperature

Stations

Nearby Weather Stations

Station Location Temp. Windchill Dew Point Humidity Wind Precip. Elev Updated Type
                   

Watches & Warnings

There are currently no watches in effect.